Time;durP1;ratioP1;P1;durP2;ratioP2;P2;SDS_P1;SDS_P2;PMS_P1;PMS_P2;Temp;Humidity;BMP_temperature;BMP_pressure;BME280_temperature;BME280_humidity;BME280_pressure;Samples;Min_cycle;Max_cycle;Signal;HPM_P1;HPM_P2
2021/09/06 00:00:37;;;;;;;;;;;20.00;65.00;;;;;;494094;240;1125;-66
2021/09/06 00:02:38;;;;;;;;;;;20.00;64.90;;;;;;494521;240;1101;-66
2021/09/06 00:04:40;;;;;;;;;;;19.90;65.20;;;;;;494549;240;1050;-66
2021/09/06 00:06:41;;;;;;;;;;;19.90;65.50;;;;;;494120;240;1180;-66
2021/09/06 00:08:44;;;;;;;;;;;19.90;65.50;;;;;;494399;240;2187;-66
2021/09/06 00:10:46;;;;;;;;;;;20.00;65.40;;;;;;494118;240;1074;-66
2021/09/06 00:12:47;;;;;;;;;;;20.10;64.70;;;;;;494042;241;1561;-66
2021/09/06 00:14:48;;;;;;;;;;;20.20;64.50;;;;;;494299;240;1086;-66
2021/09/06 00:16:49;;;;;;;;;;;20.10;64.80;;;;;;494145;240;1070;-66
2021/09/06 00:18:51;;;;;;;;;;;20.00;65.20;;;;;;494122;240;1049;-66
2021/09/06 00:20:52;;;;;;;;;;;19.90;65.40;;;;;;494252;240;1140;-66
2021/09/06 00:22:53;;;;;;;;;;;19.90;65.50;;;;;;494218;240;1061;-66
2021/09/06 00:24:55;;;;;;;;;;;20.00;65.40;;;;;;494101;240;1015;-66
2021/09/06 00:26:56;;;;;;;;;;;20.10;64.90;;;;;;494056;240;1071;-66
2021/09/06 00:28:58;;;;;;;;;;;20.00;65.00;;;;;;494391;240;2119;-66
2021/09/06 00:30:59;;;;;;;;;;;19.90;65.30;;;;;;494058;240;1133;-66
2021/09/06 00:33:00;;;;;;;;;;;19.80;65.60;;;;;;494106;240;1051;-66
2021/09/06 00:35:02;;;;;;;;;;;19.80;65.80;;;;;;494245;240;1112;-66
2021/09/06 00:37:03;;;;;;;;;;;19.80;65.90;;;;;;494087;240;1186;-66
2021/09/06 00:39:04;;;;;;;;;;;19.90;65.60;;;;;;494170;240;1174;-66
2021/09/06 00:41:06;;;;;;;;;;;20.00;65.30;;;;;;494217;240;1121;-66
2021/09/06 00:43:07;;;;;;;;;;;19.90;65.40;;;;;;494281;240;1155;-66
2021/09/06 00:45:08;;;;;;;;;;;19.80;65.50;;;;;;494514;240;1056;-66
2021/09/06 00:47:10;;;;;;;;;;;19.80;65.80;;;;;;493934;240;1459;-66
2021/09/06 00:49:11;;;;;;;;;;;19.80;65.90;;;;;;494053;240;2198;-66
2021/09/06 00:51:12;;;;;;;;;;;19.70;66.10;;;;;;494054;240;1282;-66
2021/09/06 00:53:14;;;;;;;;;;;19.70;66.10;;;;;;494188;240;1034;-66
2021/09/06 00:55:15;;;;;;;;;;;19.80;65.70;;;;;;494088;240;1081;-66
2021/09/06 00:57:17;;;;;;;;;;;19.90;65.50;;;;;;494520;240;1121;-66
2021/09/06 00:59:18;;;;;;;;;;;19.80;65.60;;;;;;494543;240;1385;-66
2021/09/06 01:01:19;;;;;;;;;;;19.80;65.80;;;;;;494155;240;1130;-66
2021/09/06 01:03:20;;;;;;;;;;;19.90;65.50;;;;;;494388;240;1146;-66
2021/09/06 01:05:21;;;;;;;;;;;19.80;65.60;;;;;;494209;240;1063;-66
2021/09/06 01:07:23;;;;;;;;;;;19.70;65.90;;;;;;494032;240;1216;-66
2021/09/06 01:09:24;;;;;;;;;;;19.80;65.90;;;;;;494080;240;2129;-66
2021/09/06 01:11:25;;;;;;;;;;;19.80;65.70;;;;;;494002;239;1220;-66
2021/09/06 01:13:27;;;;;;;;;;;19.80;65.80;;;;;;494402;240;1056;-66
2021/09/06 01:15:28;;;;;;;;;;;19.80;65.60;;;;;;494516;240;1054;-66
2021/09/06 01:17:30;;;;;;;;;;;19.80;65.60;;;;;;494045;240;1102;-66
2021/09/06 01:19:31;;;;;;;;;;;19.80;65.80;;;;;;494518;240;1029;-66
2021/09/06 01:21:32;;;;;;;;;;;19.70;65.90;;;;;;494101;240;1220;-66
2021/09/06 01:23:33;;;;;;;;;;;19.70;66.00;;;;;;494439;240;1056;-66
2021/09/06 01:25:35;;;;;;;;;;;19.80;65.80;;;;;;494110;240;1073;-66
2021/09/06 01:27:36;;;;;;;;;;;20.00;65.20;;;;;;494066;240;1104;-66
2021/09/06 01:29:39;;;;;;;;;;;20.00;65.10;;;;;;494556;240;2163;-66
2021/09/06 01:31:39;;;;;;;;;;;20.10;64.60;;;;;;493991;240;1512;-66
2021/09/06 01:33:40;;;;;;;;;;;20.00;64.80;;;;;;494090;240;1197;-66
2021/09/06 01:35:42;;;;;;;;;;;19.90;65.20;;;;;;494541;240;1034;-66
2021/09/06 01:37:43;;;;;;;;;;;19.90;65.50;;;;;;494116;240;1118;-66
2021/09/06 01:39:44;;;;;;;;;;;19.80;65.80;;;;;;494561;240;1201;-66
2021/09/06 01:41:46;;;;;;;;;;;19.70;66.00;;;;;;494495;240;1261;-66
2021/09/06 01:43:47;;;;;;;;;;;19.70;66.00;;;;;;494099;240;1100;-66
2021/09/06 01:45:48;;;;;;;;;;;19.80;65.90;;;;;;494100;240;1161;-66
2021/09/06 01:47:50;;;;;;;;;;;19.90;65.60;;;;;;494315;240;2187;-66
2021/09/06 01:49:51;;;;;;;;;;;20.00;65.10;;;;;;494119;240;1189;-66
2021/09/06 01:51:52;;;;;;;;;;;20.20;64.50;;;;;;494349;240;1213;-66
2021/09/06 01:53:54;;;;;;;;;;;20.10;64.40;;;;;;494364;240;1124;-66
2021/09/06 01:55:55;;;;;;;;;;;20.00;64.90;;;;;;494237;240;1102;-66
2021/09/06 01:57:56;;;;;;;;;;;19.90;65.30;;;;;;494050;240;1222;-66
2021/09/06 01:59:58;;;;;;;;;;;19.80;65.70;;;;;;494119;240;1095;-66
2021/09/06 02:01:59;;;;;;;;;;;19.70;65.90;;;;;;494037;240;1067;-66
2021/09/06 02:04:00;;;;;;;;;;;19.70;66.10;;;;;;494547;240;1108;-66
2021/09/06 02:06:01;;;;;;;;;;;19.70;66.30;;;;;;494087;240;1058;-66
2021/09/06 02:08:03;;;;;;;;;;;19.70;66.20;;;;;;494170;240;2183;-66
2021/09/06 02:10:04;;;;;;;;;;;19.90;65.40;;;;;;494247;240;1048;-66
2021/09/06 02:12:06;;;;;;;;;;;20.00;64.90;;;;;;494056;240;1128;-66
2021/09/06 02:14:07;;;;;;;;;;;20.00;64.80;;;;;;494052;240;1063;-66
2021/09/06 02:16:08;;;;;;;;;;;19.90;65.10;;;;;;494052;240;1190;-66
2021/09/06 02:18:09;;;;;;;;;;;19.80;65.50;;;;;;494058;240;1109;-66
2021/09/06 02:20:11;;;;;;;;;;;19.70;65.90;;;;;;494514;240;1231;-66
2021/09/06 02:22:12;;;;;;;;;;;19.70;66.20;;;;;;494191;240;1152;-66
2021/09/06 02:24:13;;;;;;;;;;;19.70;66.10;;;;;;494558;240;1092;-66
2021/09/06 02:26:15;;;;;;;;;;;19.70;66.10;;;;;;494264;240;1104;-66
2021/09/06 02:28:16;;;;;;;;;;;19.90;65.60;;;;;;494401;240;2190;-66
2021/09/06 02:30:17;;;;;;;;;;;20.00;65.30;;;;;;494516;240;1020;-66
2021/09/06 02:32:19;;;;;;;;;;;20.10;64.90;;;;;;494057;240;1111;-66
2021/09/06 02:34:20;;;;;;;;;;;20.20;64.40;;;;;;494075;240;1076;-66
2021/09/06 02:36:21;;;;;;;;;;;20.10;64.50;;;;;;494356;240;1087;-66
2021/09/06 02:38:23;;;;;;;;;;;20.00;64.90;;;;;;494099;240;1237;-66
2021/09/06 02:40:24;;;;;;;;;;;19.90;65.20;;;;;;494470;240;1104;-66
2021/09/06 02:42:25;;;;;;;;;;;19.80;65.50;;;;;;494056;240;1166;-66
2021/09/06 02:44:28;;;;;;;;;;;19.80;65.80;;;;;;494127;240;1074;-66
2021/09/06 02:46:29;;;;;;;;;;;19.70;66.00;;;;;;494289;241;1428;-66
2021/09/06 02:48:30;;;;;;;;;;;19.70;65.80;;;;;;494129;240;2190;-66
2021/09/06 02:50:31;;;;;;;;;;;20.00;65.30;;;;;;494546;240;1057;-66
2021/09/06 02:52:33;;;;;;;;;;;20.20;64.70;;;;;;494388;240;1095;-66
2021/09/06 02:54:34;;;;;;;;;;;20.20;64.40;;;;;;494229;240;1083;-66
2021/09/06 02:56:35;;;;;;;;;;;20.10;64.60;;;;;;494198;240;1114;-66
2021/09/06 02:58:37;;;;;;;;;;;20.00;65.10;;;;;;494105;240;1040;-66
2021/09/06 03:00:38;;;;;;;;;;;19.90;65.50;;;;;;494132;240;1052;-66
2021/09/06 03:02:39;;;;;;;;;;;19.80;65.70;;;;;;494511;240;1109;-66
2021/09/06 03:04:41;;;;;;;;;;;19.70;65.80;;;;;;494328;240;965;-66
2021/09/06 03:06:42;;;;;;;;;;;19.80;65.70;;;;;;494464;240;1037;-66
2021/09/06 03:08:43;;;;;;;;;;;20.00;65.20;;;;;;494192;240;2163;-66
2021/09/06 03:10:45;;;;;;;;;;;20.00;65.10;;;;;;494397;240;1022;-66
2021/09/06 03:12:46;;;;;;;;;;;19.90;65.20;;;;;;494531;240;1019;-66
2021/09/06 03:14:47;;;;;;;;;;;20.10;64.90;;;;;;494102;240;1109;-66
2021/09/06 03:16:50;;;;;;;;;;;20.10;64.50;;;;;;494514;240;1071;-66
2021/09/06 03:18:50;;;;;;;;;;;20.00;64.80;;;;;;494099;240;1224;-66
2021/09/06 03:20:51;;;;;;;;;;;19.90;65.20;;;;;;494090;240;1071;-66
2021/09/06 03:22:53;;;;;;;;;;;19.80;65.50;;;;;;494115;240;1132;-66
2021/09/06 03:24:54;;;;;;;;;;;19.80;65.80;;;;;;494532;240;1029;-66
2021/09/06 03:26:55;;;;;;;;;;;19.70;65.80;;;;;;494015;240;1219;-66
2021/09/06 03:28:57;;;;;;;;;;;19.80;65.80;;;;;;494079;240;2144;-66
2021/09/06 03:30:58;;;;;;;;;;;20.00;65.10;;;;;;494470;240;1078;-66
2021/09/06 03:32:59;;;;;;;;;;;20.10;64.60;;;;;;494498;240;1038;-66
2021/09/06 03:35:01;;;;;;;;;;;20.00;64.60;;;;;;494199;240;1007;-66
2021/09/06 03:37:02;;;;;;;;;;;19.90;65.10;;;;;;494021;240;1203;-66
2021/09/06 03:39:03;;;;;;;;;;;19.90;65.30;;;;;;494217;240;1213;-66
2021/09/06 03:41:04;;;;;;;;;;;19.80;65.60;;;;;;494501;240;1117;-66
2021/09/06 03:43:06;;;;;;;;;;;19.80;65.70;;;;;;494205;240;1068;-66
2021/09/06 03:45:07;;;;;;;;;;;19.90;65.50;;;;;;494114;240;1078;-66
2021/09/06 03:47:08;;;;;;;;;;;20.00;65.20;;;;;;494197;240;1191;-66
2021/09/06 03:49:10;;;;;;;;;;;20.00;64.80;;;;;;494538;240;2143;-66
2021/09/06 03:51:11;;;;;;;;;;;20.00;65.00;;;;;;494353;240;1158;-66
2021/09/06 03:53:12;;;;;;;;;;;19.90;65.20;;;;;;494099;240;1200;-66
2021/09/06 03:55:14;;;;;;;;;;;19.80;65.60;;;;;;494034;240;1210;-66
2021/09/06 03:57:15;;;;;;;;;;;19.80;65.70;;;;;;494338;240;1109;-66
2021/09/06 03:59:18;;;;;;;;;;;19.80;65.80;;;;;;494047;240;1068;-66
2021/09/06 04:01:20;;;;;;;;;;;19.80;65.60;;;;;;493981;240;1474;-66
2021/09/06 04:03:20;;;;;;;;;;;20.10;64.90;;;;;;493990;241;1703;-66
2021/09/06 04:05:21;;;;;;;;;;;20.20;64.20;;;;;;494475;240;1074;-66
2021/09/06 04:07:22;;;;;;;;;;;20.20;64.30;;;;;;494056;240;1135;-66
2021/09/06 04:09:24;;;;;;;;;;;20.10;64.70;;;;;;494130;240;2170;-66
2021/09/06 04:11:25;;;;;;;;;;;19.90;65.20;;;;;;494076;240;1076;-66
2021/09/06 04:13:26;;;;;;;;;;;19.80;65.60;;;;;;494187;240;1162;-66
2021/09/06 04:15:27;;;;;;;;;;;19.70;65.80;;;;;;494051;240;1088;-66
2021/09/06 04:17:29;;;;;;;;;;;19.70;66.00;;;;;;493956;240;1158;-66
2021/09/06 04:19:31;;;;;;;;;;;19.70;65.80;;;;;;494087;240;1052;-66
2021/09/06 04:21:32;;;;;;;;;;;19.80;65.80;;;;;;493940;240;1102;-66
2021/09/06 04:23:34;;;;;;;;;;;19.70;65.90;;;;;;494186;240;1201;-66
2021/09/06 04:25:35;;;;;;;;;;;19.70;66.00;;;;;;494161;240;1101;-66
2021/09/06 04:27:36;;;;;;;;;;;19.80;65.60;;;;;;493990;240;1048;-66
2021/09/06 04:29:38;;;;;;;;;;;19.80;65.50;;;;;;493948;240;2267;-66
2021/09/06 04:31:39;;;;;;;;;;;19.80;65.60;;;;;;494038;240;1032;-66
2021/09/06 04:33:40;;;;;;;;;;;19.90;65.30;;;;;;494232;240;1043;-66
2021/09/06 04:35:42;;;;;;;;;;;20.00;65.10;;;;;;494100;240;1120;-66
2021/09/06 04:37:43;;;;;;;;;;;19.80;65.30;;;;;;493648;240;1219;-66
2021/09/06 04:39:44;;;;;;;;;;;19.80;65.60;;;;;;493891;240;1191;-66
2021/09/06 04:41:46;;;;;;;;;;;19.70;65.80;;;;;;494061;240;1081;-66
2021/09/06 04:43:48;;;;;;;;;;;19.80;65.90;;;;;;494046;240;1167;-66
2021/09/06 04:45:49;;;;;;;;;;;19.80;65.60;;;;;;494051;240;1095;-66
2021/09/06 04:47:50;;;;;;;;;;;19.70;65.70;;;;;;494259;240;1055;-66
2021/09/06 04:49:51;;;;;;;;;;;19.70;66.00;;;;;;494075;240;2144;-66
2021/09/06 04:51:53;;;;;;;;;;;19.70;65.90;;;;;;494220;240;1044;-66
2021/09/06 04:53:54;;;;;;;;;;;19.80;65.80;;;;;;494258;240;1153;-66
2021/09/06 04:55:55;;;;;;;;;;;19.80;65.50;;;;;;494155;240;1129;-66
2021/09/06 04:57:57;;;;;;;;;;;19.90;65.30;;;;;;493932;240;1054;-66
2021/09/06 04:59:58;;;;;;;;;;;19.80;65.50;;;;;;494369;240;1076;-66
2021/09/06 05:01:59;;;;;;;;;;;19.80;65.60;;;;;;493934;240;1127;-66
2021/09/06 05:04:01;;;;;;;;;;;19.70;65.70;;;;;;494024;240;1079;-66
2021/09/06 05:06:02;;;;;;;;;;;19.80;65.70;;;;;;494194;240;1131;-66
2021/09/06 05:08:03;;;;;;;;;;;19.80;65.50;;;;;;494116;240;1061;-66
2021/09/06 05:10:05;;;;;;;;;;;19.80;65.50;;;;;;494005;240;2203;-66
2021/09/06 05:12:06;;;;;;;;;;;20.00;65.00;;;;;;493770;240;1172;-66
2021/09/06 05:14:07;;;;;;;;;;;20.10;64.50;;;;;;493693;240;1111;-66
2021/09/06 05:16:09;;;;;;;;;;;20.10;64.50;;;;;;493709;240;1142;-66
2021/09/06 05:18:11;;;;;;;;;;;20.00;64.90;;;;;;493798;240;1110;-66
2021/09/06 05:20:12;;;;;;;;;;;19.90;65.20;;;;;;493748;240;1047;-66
2021/09/06 05:22:13;;;;;;;;;;;19.80;65.60;;;;;;493725;240;1299;-66
2021/09/06 05:24:15;;;;;;;;;;;19.80;65.70;;;;;;493800;240;1147;-66
2021/09/06 05:26:16;;;;;;;;;;;19.90;65.40;;;;;;493909;240;1339;-66
2021/09/06 05:28:17;;;;;;;;;;;20.10;64.70;;;;;;493813;240;1085;-66
2021/09/06 05:30:19;;;;;;;;;;;20.30;64.20;;;;;;493929;240;2198;-66
2021/09/06 05:32:20;;;;;;;;;;;20.30;63.80;;;;;;493783;240;1242;-66
2021/09/06 05:34:21;;;;;;;;;;;20.20;64.00;;;;;;493495;240;1119;-66
2021/09/06 05:36:23;;;;;;;;;;;20.10;64.60;;;;;;493747;240;1105;-66
2021/09/06 05:38:25;;;;;;;;;;;20.00;65.00;;;;;;493730;240;1067;-66
2021/09/06 05:40:25;;;;;;;;;;;19.90;65.20;;;;;;493724;240;1347;-66
2021/09/06 05:42:27;;;;;;;;;;;19.70;65.50;;;;;;493746;240;1244;-66
2021/09/06 05:44:29;;;;;;;;;;;19.70;65.70;;;;;;493888;240;1083;-66
2021/09/06 05:46:29;;;;;;;;;;;19.80;65.70;;;;;;493403;241;2032;-66
2021/09/06 05:48:31;;;;;;;;;;;19.90;65.30;;;;;;493496;240;1023;-66
2021/09/06 05:50:32;;;;;;;;;;;19.90;65.10;;;;;;493442;240;2159;-66
2021/09/06 05:52:34;;;;;;;;;;;19.80;65.20;;;;;;493478;240;1066;-66
2021/09/06 05:54:35;;;;;;;;;;;19.80;65.50;;;;;;493458;237;1287;-66
2021/09/06 05:56:36;;;;;;;;;;;19.90;65.40;;;;;;493479;240;1031;-66
2021/09/06 05:58:38;;;;;;;;;;;20.00;64.90;;;;;;493465;240;1048;-66
2021/09/06 06:00:39;;;;;;;;;;;20.00;65.00;;;;;;493462;240;1046;-66
2021/09/06 06:02:40;;;;;;;;;;;20.00;65.00;;;;;;493367;240;1052;-66
2021/09/06 06:04:42;;;;;;;;;;;20.00;64.90;;;;;;493149;240;1254;-66
2021/09/06 06:06:43;;;;;;;;;;;19.90;65.10;;;;;;493374;240;1171;-66
2021/09/06 06:08:44;;;;;;;;;;;19.80;65.40;;;;;;493467;240;1046;-66
2021/09/06 06:10:47;;;;;;;;;;;19.80;65.60;;;;;;493512;240;2190;-66
2021/09/06 06:12:47;;;;;;;;;;;19.80;65.50;;;;;;493308;241;1259;-66
2021/09/06 06:14:49;;;;;;;;;;;20.10;64.90;;;;;;493464;240;1109;-66
2021/09/06 06:16:50;;;;;;;;;;;20.20;64.20;;;;;;493298;240;1399;-66
2021/09/06 06:18:51;;;;;;;;;;;20.40;63.60;;;;;;493449;240;1385;-66
2021/09/06 06:20:52;;;;;;;;;;;20.50;63.30;;;;;;493419;240;1082;-66
2021/09/06 06:22:54;;;;;;;;;;;20.30;63.60;;;;;;493408;240;1108;-66
2021/09/06 06:24:55;;;;;;;;;;;20.20;64.20;;;;;;493372;240;1142;-66
2021/09/06 06:26:56;;;;;;;;;;;20.00;64.70;;;;;;493378;240;1087;-66
2021/09/06 06:28:59;;;;;;;;;;;19.90;65.20;;;;;;493391;240;1057;-66
2021/09/06 06:31:00;;;;;;;;;;;19.80;65.40;;;;;;493346;240;2194;-66
2021/09/06 06:33:01;;;;;;;;;;;19.80;65.50;;;;;;493268;240;1308;-66
2021/09/06 06:35:04;;;;;;;;;;;19.80;65.50;;;;;;493229;240;1172;-66
2021/09/06 06:37:05;;;;;;;;;;;20.10;64.80;;;;;;493072;240;1085;-66
2021/09/06 06:39:07;;;;;;;;;;;20.30;64.10;;;;;;493299;240;1064;-66
2021/09/06 06:41:08;;;;;;;;;;;20.50;63.50;;;;;;493324;240;1311;-66
2021/09/06 06:43:09;;;;;;;;;;;20.50;63.30;;;;;;493276;240;1081;-66
2021/09/06 06:45:11;;;;;;;;;;;20.40;63.60;;;;;;493302;240;1093;-66
2021/09/06 06:47:12;;;;;;;;;;;20.20;64.20;;;;;;493313;240;1225;-66
2021/09/06 06:49:13;;;;;;;;;;;20.00;64.60;;;;;;493222;240;1108;-66
2021/09/06 06:51:14;;;;;;;;;;;20.00;65.10;;;;;;493118;240;2123;-66
2021/09/06 06:53:16;;;;;;;;;;;19.90;65.20;;;;;;493180;240;1165;-66
2021/09/06 06:55:17;;;;;;;;;;;19.80;65.50;;;;;;493263;240;1148;-66
2021/09/06 06:57:19;;;;;;;;;;;19.80;65.70;;;;;;493079;240;1072;-66
2021/09/06 06:59:20;;;;;;;;;;;19.70;65.80;;;;;;493281;240;1052;-66
2021/09/06 07:01:21;;;;;;;;;;;19.70;66.00;;;;;;493213;240;1097;-66
2021/09/06 07:03:23;;;;;;;;;;;19.80;65.90;;;;;;493480;240;818;-66
2021/09/06 07:05:24;;;;;;;;;;;19.80;65.60;;;;;;493700;240;881;-66
2021/09/06 07:07:25;;;;;;;;;;;19.80;65.50;;;;;;493666;240;1243;-66
2021/09/06 07:09:27;;;;;;;;;;;20.00;65.10;;;;;;493774;240;749;-66
2021/09/06 07:11:28;;;;;;;;;;;20.10;64.70;;;;;;493330;240;2247;-66
2021/09/06 07:13:29;;;;;;;;;;;20.30;64.00;;;;;;493351;240;1098;-66
2021/09/06 07:15:32;;;;;;;;;;;20.20;64.20;;;;;;493391;240;1133;-66
2021/09/06 07:17:34;;;;;;;;;;;20.10;64.60;;;;;;493303;240;1272;-66
2021/09/06 07:19:35;;;;;;;;;;;20.00;64.90;;;;;;492911;240;1162;-66
2021/09/06 07:21:36;;;;;;;;;;;19.90;65.20;;;;;;492959;240;1187;-66
2021/09/06 07:23:38;;;;;;;;;;;19.80;65.50;;;;;;493550;240;854;-66
2021/09/06 07:25:39;;;;;;;;;;;19.80;65.60;;;;;;493541;240;1073;-66
2021/09/06 07:27:40;;;;;;;;;;;19.90;65.30;;;;;;493972;240;1010;-66
2021/09/06 07:29:42;;;;;;;;;;;20.10;64.80;;;;;;494042;240;853;-66
2021/09/06 07:31:43;;;;;;;;;;;20.20;64.20;;;;;;493539;240;2179;-66
2021/09/06 07:33:44;;;;;;;;;;;20.40;63.70;;;;;;494039;240;802;-66
2021/09/06 07:35:46;;;;;;;;;;;20.50;63.30;;;;;;493934;240;1212;-66
2021/09/06 07:37:47;;;;;;;;;;;20.70;62.80;;;;;;493360;240;1051;-66
2021/09/06 07:39:48;;;;;;;;;;;20.60;62.90;;;;;;493475;240;1312;-66
2021/09/06 07:41:49;;;;;;;;;;;20.40;63.50;;;;;;493520;240;1181;-65
2021/09/06 07:43:51;;;;;;;;;;;20.20;64.10;;;;;;493558;240;1105;-66
2021/09/06 07:45:52;;;;;;;;;;;20.10;64.50;;;;;;493534;239;1160;-66
2021/09/06 07:47:53;;;;;;;;;;;20.00;65.00;;;;;;493965;240;1017;-66
2021/09/06 07:49:57;;;;;;;;;;;19.90;65.30;;;;;;493986;240;2232;-66
2021/09/06 07:51:56;;;;;;;;;;;19.90;65.50;;;;;;493463;241;1272;-66
2021/09/06 07:53:57;;;;;;;;;;;19.80;65.60;;;;;;494016;240;1033;-66
2021/09/06 07:55:59;;;;;;;;;;;19.80;65.70;;;;;;493919;240;1254;-66
2021/09/06 07:58:00;;;;;;;;;;;19.90;65.50;;;;;;493980;240;856;-66
2021/09/06 08:00:01;;;;;;;;;;;19.90;65.20;;;;;;493563;240;880;-66
2021/09/06 08:02:03;;;;;;;;;;;19.90;65.50;;;;;;493896;240;1247;-66
2021/09/06 08:04:04;;;;;;;;;;;19.80;65.60;;;;;;493904;240;1030;-66
2021/09/06 08:06:05;;;;;;;;;;;19.80;65.70;;;;;;493433;240;879;-66
2021/09/06 08:08:07;;;;;;;;;;;19.80;65.80;;;;;;493906;240;1442;-66
2021/09/06 08:10:08;;;;;;;;;;;19.80;65.80;;;;;;493919;240;2203;-66
2021/09/06 08:12:09;;;;;;;;;;;20.00;65.40;;;;;;493584;240;1217;-66
2021/09/06 08:14:11;;;;;;;;;;;20.20;64.80;;;;;;493568;240;1255;-66
2021/09/06 08:16:12;;;;;;;;;;;20.10;64.60;;;;;;493406;240;1200;-66
2021/09/06 08:18:13;;;;;;;;;;;20.00;64.90;;;;;;493585;240;1084;-66
2021/09/06 08:20:14;;;;;;;;;;;20.00;65.20;;;;;;493961;240;836;-66
2021/09/06 08:22:16;;;;;;;;;;;20.00;65.30;;;;;;493401;240;1164;-66
2021/09/06 08:24:17;;;;;;;;;;;19.90;65.50;;;;;;493561;240;849;-66
2021/09/06 08:26:21;;;;;;;;;;;19.80;65.70;;;;;;493443;240;1185;-66
2021/09/06 08:28:20;;;;;;;;;;;19.80;65.80;;;;;;493847;241;1262;-66
2021/09/06 08:30:21;;;;;;;;;;;19.80;65.70;;;;;;493991;240;2187;-66
2021/09/06 08:32:22;;;;;;;;;;;19.80;65.80;;;;;;493988;240;1255;-66
2021/09/06 08:34:24;;;;;;;;;;;19.80;65.80;;;;;;493872;240;1051;-66
2021/09/06 08:36:25;;;;;;;;;;;20.00;65.50;;;;;;493343;240;1178;-66
2021/09/06 08:38:26;;;;;;;;;;;20.00;65.40;;;;;;493897;240;828;-66
2021/09/06 08:40:28;;;;;;;;;;;19.90;65.50;;;;;;493910;240;831;-66
2021/09/06 08:42:29;;;;;;;;;;;19.90;65.70;;;;;;493421;240;1199;-66
2021/09/06 08:44:30;;;;;;;;;;;19.80;65.70;;;;;;493580;240;798;-66
2021/09/06 08:46:32;;;;;;;;;;;19.80;65.70;;;;;;493466;240;1054;-66
2021/09/06 08:48:33;;;;;;;;;;;19.80;65.80;;;;;;493958;240;1103;-66
2021/09/06 08:50:34;;;;;;;;;;;19.80;65.90;;;;;;493526;240;2195;-66
2021/09/06 08:52:36;;;;;;;;;;;19.80;65.80;;;;;;493463;240;1333;-66
2021/09/06 08:54:37;;;;;;;;;;;19.80;65.80;;;;;;493539;240;1145;-66
2021/09/06 08:56:38;;;;;;;;;;;19.80;65.90;;;;;;493483;240;1044;-66
2021/09/06 08:58:40;;;;;;;;;;;19.90;65.90;;;;;;493388;240;1152;-66
2021/09/06 09:00:42;;;;;;;;;;;19.90;65.60;;;;;;493891;240;1109;-66
2021/09/06 09:02:43;;;;;;;;;;;20.00;65.40;;;;;;493892;240;853;-66
2021/09/06 09:04:44;;;;;;;;;;;20.20;64.60;;;;;;493461;240;1178;-66
2021/09/06 09:06:45;;;;;;;;;;;20.40;63.90;;;;;;493833;240;1162;-66
2021/09/06 09:08:47;;;;;;;;;;;20.40;64.00;;;;;;493482;240;1044;-65
2021/09/06 09:10:48;;;;;;;;;;;20.30;64.30;;;;;;493941;240;2210;-66
2021/09/06 09:12:49;;;;;;;;;;;20.20;64.70;;;;;;493340;240;1096;-66
2021/09/06 09:14:51;;;;;;;;;;;20.10;65.00;;;;;;493919;240;871;-66
2021/09/06 09:16:52;;;;;;;;;;;20.00;65.20;;;;;;493905;240;813;-66
2021/09/06 09:18:53;;;;;;;;;;;20.00;65.40;;;;;;493591;240;1161;-66
2021/09/06 09:20:55;;;;;;;;;;;20.00;65.40;;;;;;493862;240;980;-66
2021/09/06 09:22:56;;;;;;;;;;;20.00;65.50;;;;;;493388;240;934;-66
2021/09/06 09:24:57;;;;;;;;;;;20.00;65.20;;;;;;493746;240;1167;-66
2021/09/06 09:26:59;;;;;;;;;;;20.00;65.30;;;;;;493201;240;1034;-66
2021/09/06 09:29:00;;;;;;;;;;;19.90;65.50;;;;;;493328;240;836;-66
2021/09/06 09:33:12;;;;;;;;;;;19.90;65.80;;;;;;491918;233;2610;-68
2021/09/06 09:35:13;;;;;;;;;;;19.80;65.90;;;;;;494044;240;1132;-67
2021/09/06 09:37:15;;;;;;;;;;;19.80;66.00;;;;;;493857;240;1153;-67
2021/09/06 09:39:16;;;;;;;;;;;19.80;66.00;;;;;;494096;240;1102;-67
2021/09/06 09:41:17;;;;;;;;;;;19.90;65.80;;;;;;494038;240;1178;-67
2021/09/06 09:43:18;;;;;;;;;;;20.00;65.50;;;;;;494106;240;1078;-67
2021/09/06 09:45:20;;;;;;;;;;;19.90;65.60;;;;;;493972;240;1161;-67
2021/09/06 09:47:23;;;;;;;;;;;19.80;65.90;;;;;;493876;240;1218;-67
2021/09/06 09:49:22;;;;;;;;;;;19.70;66.00;;;;;;493893;240;1333;-67
2021/09/06 09:51:24;;;;;;;;;;;19.70;66.10;;;;;;493856;240;2179;-67
2021/09/06 09:53:25;;;;;;;;;;;19.70;66.30;;;;;;494113;240;1112;-67
2021/09/06 09:55:26;;;;;;;;;;;19.70;66.30;;;;;;494152;240;1171;-67
2021/09/06 09:57:28;;;;;;;;;;;19.80;65.80;;;;;;494097;236;1324;-67
2021/09/06 09:59:29;;;;;;;;;;;19.80;65.80;;;;;;494099;240;1144;-67
2021/09/06 10:01:30;;;;;;;;;;;19.80;65.90;;;;;;494096;240;1167;-67
2021/09/06 10:03:34;;;;;;;;;;;19.70;66.10;;;;;;494113;240;1233;-67
2021/09/06 10:05:33;;;;;;;;;;;19.70;66.10;;;;;;493921;240;1261;-67
2021/09/06 10:07:34;;;;;;;;;;;19.70;66.20;;;;;;493966;240;1220;-67
2021/09/06 10:09:36;;;;;;;;;;;19.90;65.80;;;;;;494036;240;1105;-67
2021/09/06 10:11:37;;;;;;;;;;;19.90;65.40;;;;;;493948;240;2199;-67
2021/09/06 10:13:38;;;;;;;;;;;19.80;65.60;;;;;;494168;240;1145;-67
2021/09/06 10:15:40;;;;;;;;;;;19.80;65.90;;;;;;494214;240;1227;-67
2021/09/06 10:17:43;;;;;;;;;;;19.80;65.80;;;;;;494169;240;1193;-67
2021/09/06 10:19:42;;;;;;;;;;;19.80;65.80;;;;;;493858;240;1379;-67
2021/09/06 10:21:44;;;;;;;;;;;19.80;66.00;;;;;;493834;240;1154;-67
2021/09/06 10:23:45;;;;;;;;;;;19.80;65.90;;;;;;493765;240;1091;-67
2021/09/06 10:25:46;;;;;;;;;;;19.80;66.00;;;;;;493772;240;1072;-67
2021/09/06 10:27:48;;;;;;;;;;;19.80;65.80;;;;;;493838;240;1260;-67
2021/09/06 10:29:49;;;;;;;;;;;19.80;65.90;;;;;;493970;240;1176;-67
2021/09/06 10:31:50;;;;;;;;;;;19.80;65.80;;;;;;493880;240;2191;-67
2021/09/06 10:33:52;;;;;;;;;;;19.80;65.90;;;;;;493914;240;1195;-67
2021/09/06 10:35:53;;;;;;;;;;;19.90;65.40;;;;;;493939;240;1137;-67
2021/09/06 10:37:54;;;;;;;;;;;20.10;64.80;;;;;;493884;240;1230;-67
2021/09/06 10:39:56;;;;;;;;;;;20.30;64.30;;;;;;493822;240;1077;-67
2021/09/06 10:41:57;;;;;;;;;;;20.40;63.80;;;;;;493668;240;1279;-67
2021/09/06 10:43:58;;;;;;;;;;;20.50;63.30;;;;;;493883;240;1258;-67
2021/09/06 10:46:00;;;;;;;;;;;20.40;63.60;;;;;;493902;240;1217;-67
2021/09/06 10:48:01;;;;;;;;;;;20.20;64.30;;;;;;494205;240;1438;-67
2021/09/06 10:50:02;;;;;;;;;;;20.10;64.80;;;;;;494780;240;987;-67
2021/09/06 10:52:03;;;;;;;;;;;20.00;65.30;;;;;;494156;240;2175;-67
2021/09/06 10:54:07;;;;;;;;;;;19.90;65.50;;;;;;494812;240;849;-67
2021/09/06 10:56:06;;;;;;;;;;;19.90;65.70;;;;;;494208;241;1331;-67
2021/09/06 10:58:07;;;;;;;;;;;19.90;65.70;;;;;;494800;240;1106;-67
2021/09/06 11:00:09;;;;;;;;;;;20.00;65.10;;;;;;494401;240;835;-67
2021/09/06 11:02:10;;;;;;;;;;;20.20;64.40;;;;;;494280;240;1037;-67
2021/09/06 11:04:11;;;;;;;;;;;20.40;63.90;;;;;;494488;240;1114;-67
2021/09/06 11:06:13;;;;;;;;;;;20.50;63.50;;;;;;494081;240;1066;-67
2021/09/06 11:08:14;;;;;;;;;;;20.60;63.20;;;;;;494272;240;878;-67
2021/09/06 11:10:15;;;;;;;;;;;20.60;63.00;;;;;;494449;240;934;-67
2021/09/06 11:12:17;;;;;;;;;;;20.70;62.80;;;;;;494857;240;2190;-67
2021/09/06 11:14:18;;;;;;;;;;;20.80;62.60;;;;;;494901;240;855;-67
2021/09/06 11:16:19;;;;;;;;;;;20.90;62.10;;;;;;494400;240;1558;-67
2021/09/06 11:18:21;;;;;;;;;;;20.80;62.40;;;;;;494819;240;1069;-67
2021/09/06 11:20:22;;;;;;;;;;;20.60;63.20;;;;;;494474;240;831;-67
2021/09/06 11:22:23;;;;;;;;;;;20.40;63.90;;;;;;494812;240;1355;-67
2021/09/06 11:24:26;;;;;;;;;;;20.20;64.40;;;;;;494374;240;1296;-67
2021/09/06 11:26:27;;;;;;;;;;;20.10;64.80;;;;;;494187;241;1285;-67
2021/09/06 11:28:28;;;;;;;;;;;20.10;65.10;;;;;;494270;240;1287;-67
2021/09/06 11:30:29;;;;;;;;;;;20.00;65.30;;;;;;494337;240;939;-67
2021/09/06 11:32:30;;;;;;;;;;;19.90;65.60;;;;;;494154;240;2167;-67
2021/09/06 11:34:33;;;;;;;;;;;19.90;65.80;;;;;;494640;240;1106;-67
2021/09/06 11:36:33;;;;;;;;;;;19.80;65.90;;;;;;494523;240;1186;-67
2021/09/06 11:38:34;;;;;;;;;;;19.80;66.00;;;;;;494768;240;1285;-67
2021/09/06 11:40:35;;;;;;;;;;;19.80;66.00;;;;;;494178;240;1100;-67
2021/09/06 11:42:37;;;;;;;;;;;19.80;66.00;;;;;;494177;240;1109;-67
2021/09/06 11:44:38;;;;;;;;;;;19.80;66.00;;;;;;494420;240;1232;-67
2021/09/06 11:46:39;;;;;;;;;;;19.90;65.50;;;;;;494353;240;1260;-67
2021/09/06 11:48:41;;;;;;;;;;;19.90;65.50;;;;;;494774;240;1436;-67
2021/09/06 11:50:42;;;;;;;;;;;19.90;65.70;;;;;;494201;240;832;-67
2021/09/06 11:52:43;;;;;;;;;;;19.80;65.90;;;;;;494028;240;2182;-67
2021/09/06 11:54:45;;;;;;;;;;;19.80;66.10;;;;;;494211;240;1162;-67
2021/09/06 11:56:46;;;;;;;;;;;19.80;65.80;;;;;;494065;240;802;-67
2021/09/06 11:58:47;;;;;;;;;;;19.80;66.00;;;;;;494705;240;1225;-67